sensor_id;sensor_type;location;lat;lon;timestamp;temperature;humidity
12434;DHT22;6281;49.038;8.372;2023-05-16T00:00:57;14.40;99.90
12434;DHT22;6281;49.038;8.372;2023-05-16T00:03:23;14.30;99.90
12434;DHT22;6281;49.038;8.372;2023-05-16T00:05:50;14.30;99.90
12434;DHT22;6281;49.038;8.372;2023-05-16T00:08:17;14.30;99.90
12434;DHT22;6281;49.038;8.372;2023-05-16T00:10:44;14.30;99.90
12434;DHT22;6281;49.038;8.372;2023-05-16T00:13:11;14.30;99.90
12434;DHT22;6281;49.038;8.372;2023-05-16T00:15:39;14.20;99.90
12434;DHT22;6281;49.038;8.372;2023-05-16T00:18:08;14.30;99.90
12434;DHT22;6281;49.038;8.372;2023-05-16T00:20:39;14.20;99.90
12434;DHT22;6281;49.038;8.372;2023-05-16T00:23:06;14.20;99.90
12434;DHT22;6281;49.038;8.372;2023-05-16T00:25:33;14.30;99.90
12434;DHT22;6281;49.038;8.372;2023-05-16T00:28:00;14.30;99.90
12434;DHT22;6281;49.038;8.372;2023-05-16T00:30:30;14.30;99.90
12434;DHT22;6281;49.038;8.372;2023-05-16T00:32:58;14.30;99.90
12434;DHT22;6281;49.038;8.372;2023-05-16T00:35:26;14.20;99.90
12434;DHT22;6281;49.038;8.372;2023-05-16T00:37:53;14.20;99.90
12434;DHT22;6281;49.038;8.372;2023-05-16T00:40:21;14.30;99.90
12434;DHT22;6281;49.038;8.372;2023-05-16T00:42:47;14.10;99.90
12434;DHT22;6281;49.038;8.372;2023-05-16T00:45:14;14.10;99.90
12434;DHT22;6281;49.038;8.372;2023-05-16T00:47:41;14.20;99.90
12434;DHT22;6281;49.038;8.372;2023-05-16T00:50:10;14.10;99.90
12434;DHT22;6281;49.038;8.372;2023-05-16T00:52:37;14.00;99.90
12434;DHT22;6281;49.038;8.372;2023-05-16T00:55:05;14.00;99.90
12434;DHT22;6281;49.038;8.372;2023-05-16T00:57:32;14.00;99.90
12434;DHT22;6281;49.038;8.372;2023-05-16T01:00:00;14.00;99.90
12434;DHT22;6281;49.038;8.372;2023-05-16T01:02:27;13.90;99.90
12434;DHT22;6281;49.038;8.372;2023-05-16T01:04:55;14.00;99.90
12434;DHT22;6281;49.038;8.372;2023-05-16T01:07:23;13.90;99.90
12434;DHT22;6281;49.038;8.372;2023-05-16T01:09:50;13.80;99.90
12434;DHT22;6281;49.038;8.372;2023-05-16T01:12:26;13.70;99.90
12434;DHT22;6281;49.038;8.372;2023-05-16T01:15:01;13.90;99.90
12434;DHT22;6281;49.038;8.372;2023-05-16T01:17:37;13.70;99.90
12434;DHT22;6281;49.038;8.372;2023-05-16T01:20:11;13.80;99.90
12434;DHT22;6281;49.038;8.372;2023-05-16T01:22:51;13.70;99.90
12434;DHT22;6281;49.038;8.372;2023-05-16T01:25:31;13.70;99.90
12434;DHT22;6281;49.038;8.372;2023-05-16T01:28:02;13.70;99.90
12434;DHT22;6281;49.038;8.372;2023-05-16T01:30:34;13.60;99.90
12434;DHT22;6281;49.038;8.372;2023-05-16T01:33:01;13.70;99.90
12434;DHT22;6281;49.038;8.372;2023-05-16T01:35:28;13.70;99.90
12434;DHT22;6281;49.038;8.372;2023-05-16T01:38:00;13.60;99.90
12434;DHT22;6281;49.038;8.372;2023-05-16T01:40:35;13.70;99.90
12434;DHT22;6281;49.038;8.372;2023-05-16T01:43:07;13.60;99.90
12434;DHT22;6281;49.038;8.372;2023-05-16T01:45:40;13.70;99.90
12434;DHT22;6281;49.038;8.372;2023-05-16T01:48:12;13.60;99.90
12434;DHT22;6281;49.038;8.372;2023-05-16T01:50:48;13.50;99.90
12434;DHT22;6281;49.038;8.372;2023-05-16T01:53:21;13.50;99.90
12434;DHT22;6281;49.038;8.372;2023-05-16T01:55:51;13.50;99.90
12434;DHT22;6281;49.038;8.372;2023-05-16T01:58:29;13.50;99.90
12434;DHT22;6281;49.038;8.372;2023-05-16T02:00:59;13.50;99.90
12434;DHT22;6281;49.038;8.372;2023-05-16T02:03:28;13.50;99.90
12434;DHT22;6281;49.038;8.372;2023-05-16T02:05:55;13.50;99.90
12434;DHT22;6281;49.038;8.372;2023-05-16T02:08:22;13.50;99.90
12434;DHT22;6281;49.038;8.372;2023-05-16T02:10:49;13.30;99.90
12434;DHT22;6281;49.038;8.372;2023-05-16T02:13:16;13.40;99.90
12434;DHT22;6281;49.038;8.372;2023-05-16T02:15:44;13.40;99.90
12434;DHT22;6281;49.038;8.372;2023-05-16T02:18:11;13.40;99.90
12434;DHT22;6281;49.038;8.372;2023-05-16T02:20:38;13.40;99.90
12434;DHT22;6281;49.038;8.372;2023-05-16T02:23:05;13.30;99.90
12434;DHT22;6281;49.038;8.372;2023-05-16T02:25:32;13.40;99.90
12434;DHT22;6281;49.038;8.372;2023-05-16T02:27:59;13.40;99.90
12434;DHT22;6281;49.038;8.372;2023-05-16T02:30:26;13.30;99.90
12434;DHT22;6281;49.038;8.372;2023-05-16T02:32:54;13.10;99.90
12434;DHT22;6281;49.038;8.372;2023-05-16T02:35:21;13.20;99.90
12434;DHT22;6281;49.038;8.372;2023-05-16T02:37:48;13.20;99.90
12434;DHT22;6281;49.038;8.372;2023-05-16T02:40:15;13.00;99.90
12434;DHT22;6281;49.038;8.372;2023-05-16T02:42:42;13.10;99.90
12434;DHT22;6281;49.038;8.372;2023-05-16T02:45:09;13.10;99.90
12434;DHT22;6281;49.038;8.372;2023-05-16T02:47:36;13.20;99.90
12434;DHT22;6281;49.038;8.372;2023-05-16T02:50:06;13.10;99.90
12434;DHT22;6281;49.038;8.372;2023-05-16T02:52:33;13.10;99.90
12434;DHT22;6281;49.038;8.372;2023-05-16T02:55:00;13.20;99.90
12434;DHT22;6281;49.038;8.372;2023-05-16T02:58:00;13.10;99.90
12434;DHT22;6281;49.038;8.372;2023-05-16T03:00:26;12.90;99.90
12434;DHT22;6281;49.038;8.372;2023-05-16T03:02:53;13.10;99.90
12434;DHT22;6281;49.038;8.372;2023-05-16T03:05:21;13.00;99.90
12434;DHT22;6281;49.038;8.372;2023-05-16T03:07:48;12.90;99.90
12434;DHT22;6281;49.038;8.372;2023-05-16T03:10:15;12.90;99.90
12434;DHT22;6281;49.038;8.372;2023-05-16T03:12:42;13.00;99.90
12434;DHT22;6281;49.038;8.372;2023-05-16T03:15:09;13.00;99.90
12434;DHT22;6281;49.038;8.372;2023-05-16T03:17:36;12.90;99.90
12434;DHT22;6281;49.038;8.372;2023-05-16T03:20:04;12.90;99.90
12434;DHT22;6281;49.038;8.372;2023-05-16T03:22:35;12.90;99.90
12434;DHT22;6281;49.038;8.372;2023-05-16T03:25:02;12.80;99.90
12434;DHT22;6281;49.038;8.372;2023-05-16T03:27:29;12.80;99.90
12434;DHT22;6281;49.038;8.372;2023-05-16T03:29:56;12.90;99.90
12434;DHT22;6281;49.038;8.372;2023-05-16T03:32:23;12.70;99.90
12434;DHT22;6281;49.038;8.372;2023-05-16T03:34:49;12.70;99.90
12434;DHT22;6281;49.038;8.372;2023-05-16T03:37:17;12.70;99.90
12434;DHT22;6281;49.038;8.372;2023-05-16T03:39:45;12.60;99.90
12434;DHT22;6281;49.038;8.372;2023-05-16T03:42:12;12.70;99.90
12434;DHT22;6281;49.038;8.372;2023-05-16T03:44:39;12.70;99.90
12434;DHT22;6281;49.038;8.372;2023-05-16T03:47:06;12.70;99.90
12434;DHT22;6281;49.038;8.372;2023-05-16T03:49:33;12.70;99.90
12434;DHT22;6281;49.038;8.372;2023-05-16T03:52:01;12.80;99.90
12434;DHT22;6281;49.038;8.372;2023-05-16T03:54:28;12.80;99.90
12434;DHT22;6281;49.038;8.372;2023-05-16T03:56:57;12.80;99.90
12434;DHT22;6281;49.038;8.372;2023-05-16T03:59:24;12.70;99.90
12434;DHT22;6281;49.038;8.372;2023-05-16T04:01:51;12.50;99.90
12434;DHT22;6281;49.038;8.372;2023-05-16T04:04:18;12.60;99.90
12434;DHT22;6281;49.038;8.372;2023-05-16T04:06:45;12.60;99.90
12434;DHT22;6281;49.038;8.372;2023-05-16T04:09:12;12.70;99.90
12434;DHT22;6281;49.038;8.372;2023-05-16T04:11:39;12.50;99.90
12434;DHT22;6281;49.038;8.372;2023-05-16T04:14:07;12.50;99.90
12434;DHT22;6281;49.038;8.372;2023-05-16T04:16:34;12.50;99.90
12434;DHT22;6281;49.038;8.372;2023-05-16T04:19:01;12.50;99.90
12434;DHT22;6281;49.038;8.372;2023-05-16T04:21:28;12.50;99.90
12434;DHT22;6281;49.038;8.372;2023-05-16T04:23:55;12.50;99.90
12434;DHT22;6281;49.038;8.372;2023-05-16T04:26:22;12.60;99.90
12434;DHT22;6281;49.038;8.372;2023-05-16T04:28:49;12.50;99.90
12434;DHT22;6281;49.038;8.372;2023-05-16T04:31:17;12.50;99.90
12434;DHT22;6281;49.038;8.372;2023-05-16T04:33:44;12.40;99.90
12434;DHT22;6281;49.038;8.372;2023-05-16T04:36:11;12.50;99.90
12434;DHT22;6281;49.038;8.372;2023-05-16T04:38:38;12.50;99.90
12434;DHT22;6281;49.038;8.372;2023-05-16T04:41:06;12.50;99.90
12434;DHT22;6281;49.038;8.372;2023-05-16T04:43:33;12.50;99.90
12434;DHT22;6281;49.038;8.372;2023-05-16T04:46:00;12.60;99.90
12434;DHT22;6281;49.038;8.372;2023-05-16T04:48:28;12.50;99.90
12434;DHT22;6281;49.038;8.372;2023-05-16T04:50:55;12.60;99.90
12434;DHT22;6281;49.038;8.372;2023-05-16T04:53:22;12.50;99.90
12434;DHT22;6281;49.038;8.372;2023-05-16T04:55:49;12.50;99.90
12434;DHT22;6281;49.038;8.372;2023-05-16T04:58:29;12.40;99.90
12434;DHT22;6281;49.038;8.372;2023-05-16T05:00:56;12.40;99.90
12434;DHT22;6281;49.038;8.372;2023-05-16T05:03:23;12.70;99.90
12434;DHT22;6281;49.038;8.372;2023-05-16T05:05:51;12.70;99.90
12434;DHT22;6281;49.038;8.372;2023-05-16T05:08:18;12.50;99.90
12434;DHT22;6281;49.038;8.372;2023-05-16T05:10:45;12.60;99.90
12434;DHT22;6281;49.038;8.372;2023-05-16T05:13:12;12.50;99.90
12434;DHT22;6281;49.038;8.372;2023-05-16T05:15:39;12.50;99.90
12434;DHT22;6281;49.038;8.372;2023-05-16T05:18:06;12.50;99.90
12434;DHT22;6281;49.038;8.372;2023-05-16T05:20:33;12.50;99.90
12434;DHT22;6281;49.038;8.372;2023-05-16T05:23:01;12.70;99.90
12434;DHT22;6281;49.038;8.372;2023-05-16T05:25:28;12.50;99.90
12434;DHT22;6281;49.038;8.372;2023-05-16T05:27:55;12.40;99.90
12434;DHT22;6281;49.038;8.372;2023-05-16T05:30:22;12.40;99.90
12434;DHT22;6281;49.038;8.372;2023-05-16T05:32:49;12.40;99.90
12434;DHT22;6281;49.038;8.372;2023-05-16T05:35:16;12.40;99.90
12434;DHT22;6281;49.038;8.372;2023-05-16T05:37:43;12.40;99.90
12434;DHT22;6281;49.038;8.372;2023-05-16T05:40:11;12.50;99.90
12434;DHT22;6281;49.038;8.372;2023-05-16T05:42:38;12.60;99.90
12434;DHT22;6281;49.038;8.372;2023-05-16T05:45:06;12.40;99.90
12434;DHT22;6281;49.038;8.372;2023-05-16T05:47:33;12.50;99.90
12434;DHT22;6281;49.038;8.372;2023-05-16T05:50:00;12.50;99.90
12434;DHT22;6281;49.038;8.372;2023-05-16T05:52:27;12.40;99.90
12434;DHT22;6281;49.038;8.372;2023-05-16T05:54:54;12.50;99.90
12434;DHT22;6281;49.038;8.372;2023-05-16T05:57:36;12.50;99.90
12434;DHT22;6281;49.038;8.372;2023-05-16T06:00:04;12.50;99.90
12434;DHT22;6281;49.038;8.372;2023-05-16T06:02:31;12.60;99.90
12434;DHT22;6281;49.038;8.372;2023-05-16T06:04:58;12.50;99.90
12434;DHT22;6281;49.038;8.372;2023-05-16T06:07:25;12.60;99.90
12434;DHT22;6281;49.038;8.372;2023-05-16T06:09:52;12.60;99.90
12434;DHT22;6281;49.038;8.372;2023-05-16T06:12:19;12.70;99.90
12434;DHT22;6281;49.038;8.372;2023-05-16T06:14:47;12.60;99.90
12434;DHT22;6281;49.038;8.372;2023-05-16T06:17:14;12.70;99.90
12434;DHT22;6281;49.038;8.372;2023-05-16T06:19:41;12.80;99.90
12434;DHT22;6281;49.038;8.372;2023-05-16T06:22:07;12.70;99.90
12434;DHT22;6281;49.038;8.372;2023-05-16T06:24:34;12.80;99.90
12434;DHT22;6281;49.038;8.372;2023-05-16T06:27:01;12.80;99.90
12434;DHT22;6281;49.038;8.372;2023-05-16T06:29:28;12.70;99.90
12434;DHT22;6281;49.038;8.372;2023-05-16T06:31:56;12.80;99.90
12434;DHT22;6281;49.038;8.372;2023-05-16T06:34:23;12.80;99.90
12434;DHT22;6281;49.038;8.372;2023-05-16T06:36:52;12.90;99.90
12434;DHT22;6281;49.038;8.372;2023-05-16T06:39:19;12.80;99.90
12434;DHT22;6281;49.038;8.372;2023-05-16T06:41:46;12.80;99.90
12434;DHT22;6281;49.038;8.372;2023-05-16T06:44:13;12.90;99.90
12434;DHT22;6281;49.038;8.372;2023-05-16T06:46:40;12.90;99.90
12434;DHT22;6281;49.038;8.372;2023-05-16T06:49:08;13.00;99.90
12434;DHT22;6281;49.038;8.372;2023-05-16T06:51:35;13.00;99.90
12434;DHT22;6281;49.038;8.372;2023-05-16T06:54:02;12.90;99.90
12434;DHT22;6281;49.038;8.372;2023-05-16T06:56:29;12.90;99.90
12434;DHT22;6281;49.038;8.372;2023-05-16T07:02:18;12.90;99.90
12434;DHT22;6281;49.038;8.372;2023-05-16T07:04:46;12.90;99.90
12434;DHT22;6281;49.038;8.372;2023-05-16T07:07:13;12.70;99.90
12434;DHT22;6281;49.038;8.372;2023-05-16T07:09:40;12.90;99.90
12434;DHT22;6281;49.038;8.372;2023-05-16T07:12:08;12.80;99.90
12434;DHT22;6281;49.038;8.372;2023-05-16T07:14:35;12.80;99.90
12434;DHT22;6281;49.038;8.372;2023-05-16T07:17:02;12.80;99.90
12434;DHT22;6281;49.038;8.372;2023-05-16T07:19:29;12.80;99.90
12434;DHT22;6281;49.038;8.372;2023-05-16T07:21:57;12.90;99.90
12434;DHT22;6281;49.038;8.372;2023-05-16T07:24:24;12.90;99.90
12434;DHT22;6281;49.038;8.372;2023-05-16T07:26:51;13.20;99.90
12434;DHT22;6281;49.038;8.372;2023-05-16T07:29:18;13.20;99.90
12434;DHT22;6281;49.038;8.372;2023-05-16T07:31:45;13.00;99.90
12434;DHT22;6281;49.038;8.372;2023-05-16T07:34:11;13.10;99.90
12434;DHT22;6281;49.038;8.372;2023-05-16T07:36:39;13.20;99.90
12434;DHT22;6281;49.038;8.372;2023-05-16T07:39:07;13.30;99.90
12434;DHT22;6281;49.038;8.372;2023-05-16T07:41:34;13.20;99.90
12434;DHT22;6281;49.038;8.372;2023-05-16T07:44:01;13.20;99.90
12434;DHT22;6281;49.038;8.372;2023-05-16T07:46:28;13.30;99.90
12434;DHT22;6281;49.038;8.372;2023-05-16T07:48:55;13.30;99.90
12434;DHT22;6281;49.038;8.372;2023-05-16T07:51:22;13.40;99.90
12434;DHT22;6281;49.038;8.372;2023-05-16T07:53:49;13.20;99.90
12434;DHT22;6281;49.038;8.372;2023-05-16T07:56:18;13.20;99.90
12434;DHT22;6281;49.038;8.372;2023-05-16T07:59:00;13.30;99.90
12434;DHT22;6281;49.038;8.372;2023-05-16T08:01:27;13.30;99.90
12434;DHT22;6281;49.038;8.372;2023-05-16T08:03:54;13.30;99.90
12434;DHT22;6281;49.038;8.372;2023-05-16T08:06:21;13.50;99.90
12434;DHT22;6281;49.038;8.372;2023-05-16T08:08:48;13.20;99.90
12434;DHT22;6281;49.038;8.372;2023-05-16T08:11:16;13.10;99.90
12434;DHT22;6281;49.038;8.372;2023-05-16T08:13:43;13.10;99.90
12434;DHT22;6281;49.038;8.372;2023-05-16T08:16:13;13.30;99.90
12434;DHT22;6281;49.038;8.372;2023-05-16T08:18:40;13.20;99.90
12434;DHT22;6281;49.038;8.372;2023-05-16T08:21:07;13.20;99.90
12434;DHT22;6281;49.038;8.372;2023-05-16T08:23:34;13.30;99.90
12434;DHT22;6281;49.038;8.372;2023-05-16T08:26:01;13.30;99.90
12434;DHT22;6281;49.038;8.372;2023-05-16T08:28:30;13.30;99.90
12434;DHT22;6281;49.038;8.372;2023-05-16T08:30:56;13.30;99.90
12434;DHT22;6281;49.038;8.372;2023-05-16T08:33:23;13.20;99.90
12434;DHT22;6281;49.038;8.372;2023-05-16T08:35:50;13.30;99.90
12434;DHT22;6281;49.038;8.372;2023-05-16T08:38:18;13.30;99.90
12434;DHT22;6281;49.038;8.372;2023-05-16T08:40:45;13.10;99.90
12434;DHT22;6281;49.038;8.372;2023-05-16T08:43:12;13.10;99.90
12434;DHT22;6281;49.038;8.372;2023-05-16T08:45:41;13.00;99.90
12434;DHT22;6281;49.038;8.372;2023-05-16T08:48:09;13.00;99.90
12434;DHT22;6281;49.038;8.372;2023-05-16T08:50:36;13.10;99.90
12434;DHT22;6281;49.038;8.372;2023-05-16T08:53:24;13.10;99.90
12434;DHT22;6281;49.038;8.372;2023-05-16T08:55:52;13.20;99.90
12434;DHT22;6281;49.038;8.372;2023-05-16T08:58:19;13.30;99.90
12434;DHT22;6281;49.038;8.372;2023-05-16T09:00:48;13.30;99.90
12434;DHT22;6281;49.038;8.372;2023-05-16T09:03:15;13.30;99.90
12434;DHT22;6281;49.038;8.372;2023-05-16T09:05:45;13.50;99.90
12434;DHT22;6281;49.038;8.372;2023-05-16T09:08:12;13.60;99.90
12434;DHT22;6281;49.038;8.372;2023-05-16T09:10:39;13.70;99.90
12434;DHT22;6281;49.038;8.372;2023-05-16T09:13:06;13.60;99.90
12434;DHT22;6281;49.038;8.372;2023-05-16T09:15:33;13.50;99.90
12434;DHT22;6281;49.038;8.372;2023-05-16T09:18:02;13.30;99.90
12434;DHT22;6281;49.038;8.372;2023-05-16T09:20:29;13.30;99.90
12434;DHT22;6281;49.038;8.372;2023-05-16T09:22:58;13.20;99.90
12434;DHT22;6281;49.038;8.372;2023-05-16T09:25:26;13.40;99.90
12434;DHT22;6281;49.038;8.372;2023-05-16T09:27:54;13.60;99.90
12434;DHT22;6281;49.038;8.372;2023-05-16T09:30:22;13.40;99.90
12434;DHT22;6281;49.038;8.372;2023-05-16T09:32:51;13.50;99.90
12434;DHT22;6281;49.038;8.372;2023-05-16T09:35:20;13.60;99.90
12434;DHT22;6281;49.038;8.372;2023-05-16T09:37:49;13.70;99.90
12434;DHT22;6281;49.038;8.372;2023-05-16T09:40:19;13.60;99.90
12434;DHT22;6281;49.038;8.372;2023-05-16T09:42:47;13.10;99.90
12434;DHT22;6281;49.038;8.372;2023-05-16T09:45:19;13.30;99.90
12434;DHT22;6281;49.038;8.372;2023-05-16T09:47:46;13.10;99.90
12434;DHT22;6281;49.038;8.372;2023-05-16T09:50:13;13.40;99.90
12434;DHT22;6281;49.038;8.372;2023-05-16T09:52:42;13.40;99.90
12434;DHT22;6281;49.038;8.372;2023-05-16T09:55:10;13.20;99.90
12434;DHT22;6281;49.038;8.372;2023-05-16T09:57:37;13.40;99.90
12434;DHT22;6281;49.038;8.372;2023-05-16T10:00:06;13.50;99.90
12434;DHT22;6281;49.038;8.372;2023-05-16T10:02:35;14.00;99.90
12434;DHT22;6281;49.038;8.372;2023-05-16T10:05:03;14.40;99.90
12434;DHT22;6281;49.038;8.372;2023-05-16T10:07:31;15.10;99.90
12434;DHT22;6281;49.038;8.372;2023-05-16T10:10:02;14.80;99.90
12434;DHT22;6281;49.038;8.372;2023-05-16T10:12:32;15.20;99.90
12434;DHT22;6281;49.038;8.372;2023-05-16T10:15:00;15.70;99.90
12434;DHT22;6281;49.038;8.372;2023-05-16T10:17:31;15.70;99.90
12434;DHT22;6281;49.038;8.372;2023-05-16T10:20:01;15.60;99.90
12434;DHT22;6281;49.038;8.372;2023-05-16T10:22:32;15.00;99.90
12434;DHT22;6281;49.038;8.372;2023-05-16T10:25:07;14.50;99.90
12434;DHT22;6281;49.038;8.372;2023-05-16T10:27:37;14.30;99.90
12434;DHT22;6281;49.038;8.372;2023-05-16T10:30:06;14.10;99.90
12434;DHT22;6281;49.038;8.372;2023-05-16T10:32:35;14.00;99.90
12434;DHT22;6281;49.038;8.372;2023-05-16T10:35:02;13.40;99.90
12434;DHT22;6281;49.038;8.372;2023-05-16T10:37:30;13.60;99.90
12434;DHT22;6281;49.038;8.372;2023-05-16T10:39:58;13.70;99.90
12434;DHT22;6281;49.038;8.372;2023-05-16T10:42:28;13.50;99.90
12434;DHT22;6281;49.038;8.372;2023-05-16T10:45:08;13.60;99.90
12434;DHT22;6281;49.038;8.372;2023-05-16T10:47:35;13.60;99.90
12434;DHT22;6281;49.038;8.372;2023-05-16T10:50:02;13.30;99.90
12434;DHT22;6281;49.038;8.372;2023-05-16T10:52:32;13.30;99.90
12434;DHT22;6281;49.038;8.372;2023-05-16T10:55:02;13.00;99.90
12434;DHT22;6281;49.038;8.372;2023-05-16T10:57:38;12.90;99.90
12434;DHT22;6281;49.038;8.372;2023-05-16T11:00:06;13.00;99.90
12434;DHT22;6281;49.038;8.372;2023-05-16T11:02:40;13.20;99.90
12434;DHT22;6281;49.038;8.372;2023-05-16T11:05:12;13.20;99.90
12434;DHT22;6281;49.038;8.372;2023-05-16T11:07:39;13.30;99.90
12434;DHT22;6281;49.038;8.372;2023-05-16T11:10:07;13.30;99.90
12434;DHT22;6281;49.038;8.372;2023-05-16T11:12:42;13.40;99.90
12434;DHT22;6281;49.038;8.372;2023-05-16T11:15:18;13.60;99.90
12434;DHT22;6281;49.038;8.372;2023-05-16T11:17:46;13.90;99.90
12434;DHT22;6281;49.038;8.372;2023-05-16T11:20:26;14.10;99.90
12434;DHT22;6281;49.038;8.372;2023-05-16T11:23:21;13.80;99.90
12434;DHT22;6281;49.038;8.372;2023-05-16T11:25:52;13.80;99.90
12434;DHT22;6281;49.038;8.372;2023-05-16T11:28:21;13.60;99.90
12434;DHT22;6281;49.038;8.372;2023-05-16T11:30:50;13.50;99.90
12434;DHT22;6281;49.038;8.372;2023-05-16T11:33:20;13.70;99.90
12434;DHT22;6281;49.038;8.372;2023-05-16T11:36:01;13.70;99.90
12434;DHT22;6281;49.038;8.372;2023-05-16T11:38:29;13.90;99.90
12434;DHT22;6281;49.038;8.372;2023-05-16T11:41:02;13.60;99.90
12434;DHT22;6281;49.038;8.372;2023-05-16T11:43:36;13.60;99.90
12434;DHT22;6281;49.038;8.372;2023-05-16T11:46:03;13.70;99.90
12434;DHT22;6281;49.038;8.372;2023-05-16T11:48:30;13.50;99.90
12434;DHT22;6281;49.038;8.372;2023-05-16T11:50:57;13.70;99.90
12434;DHT22;6281;49.038;8.372;2023-05-16T11:53:24;14.00;99.90
12434;DHT22;6281;49.038;8.372;2023-05-16T11:55:51;13.80;99.90
12434;DHT22;6281;49.038;8.372;2023-05-16T11:58:18;14.00;99.90
12434;DHT22;6281;49.038;8.372;2023-05-16T12:00:50;14.30;99.90
12434;DHT22;6281;49.038;8.372;2023-05-16T12:03:18;14.70;99.90
12434;DHT22;6281;49.038;8.372;2023-05-16T12:05:49;14.80;99.90
12434;DHT22;6281;49.038;8.372;2023-05-16T12:08:17;14.50;99.90
12434;DHT22;6281;49.038;8.372;2023-05-16T12:10:45;14.30;99.90
12434;DHT22;6281;49.038;8.372;2023-05-16T12:13:12;14.40;99.90
12434;DHT22;6281;49.038;8.372;2023-05-16T12:15:40;14.30;99.90
12434;DHT22;6281;49.038;8.372;2023-05-16T12:18:10;13.60;99.90
12434;DHT22;6281;49.038;8.372;2023-05-16T12:20:39;13.90;99.90
12434;DHT22;6281;49.038;8.372;2023-05-16T12:23:10;13.60;99.90
12434;DHT22;6281;49.038;8.372;2023-05-16T12:25:37;13.40;99.90
12434;DHT22;6281;49.038;8.372;2023-05-16T12:28:08;13.40;99.90
12434;DHT22;6281;49.038;8.372;2023-05-16T12:30:39;13.50;99.90
12434;DHT22;6281;49.038;8.372;2023-05-16T12:33:09;13.40;99.90
12434;DHT22;6281;49.038;8.372;2023-05-16T12:35:38;13.30;99.90
12434;DHT22;6281;49.038;8.372;2023-05-16T12:38:05;13.30;99.90
12434;DHT22;6281;49.038;8.372;2023-05-16T12:40:33;13.30;99.90
12434;DHT22;6281;49.038;8.372;2023-05-16T12:43:01;13.40;99.90
12434;DHT22;6281;49.038;8.372;2023-05-16T12:45:29;13.40;99.90
12434;DHT22;6281;49.038;8.372;2023-05-16T12:47:56;13.30;99.90
12434;DHT22;6281;49.038;8.372;2023-05-16T12:50:25;13.40;99.90
12434;DHT22;6281;49.038;8.372;2023-05-16T12:52:57;13.30;99.90
12434;DHT22;6281;49.038;8.372;2023-05-16T12:55:24;13.20;99.90
12434;DHT22;6281;49.038;8.372;2023-05-16T12:57:55;13.30;99.90
12434;DHT22;6281;49.038;8.372;2023-05-16T13:00:23;13.80;99.90
12434;DHT22;6281;49.038;8.372;2023-05-16T13:02:51;13.70;99.90
12434;DHT22;6281;49.038;8.372;2023-05-16T13:05:18;14.30;99.90
12434;DHT22;6281;49.038;8.372;2023-05-16T13:07:49;14.40;99.90
12434;DHT22;6281;49.038;8.372;2023-05-16T13:10:17;14.50;99.90
12434;DHT22;6281;49.038;8.372;2023-05-16T13:12:45;14.30;99.90
12434;DHT22;6281;49.038;8.372;2023-05-16T13:15:12;14.50;99.90
12434;DHT22;6281;49.038;8.372;2023-05-16T13:17:40;14.00;99.90
12434;DHT22;6281;49.038;8.372;2023-05-16T13:20:08;13.90;99.90
12434;DHT22;6281;49.038;8.372;2023-05-16T13:22:38;13.70;99.90
12434;DHT22;6281;49.038;8.372;2023-05-16T13:25:08;13.80;99.90
12434;DHT22;6281;49.038;8.372;2023-05-16T13:27:35;13.70;99.90
12434;DHT22;6281;49.038;8.372;2023-05-16T13:30:02;13.30;99.90
12434;DHT22;6281;49.038;8.372;2023-05-16T13:32:29;13.50;99.90
12434;DHT22;6281;49.038;8.372;2023-05-16T13:34:56;13.30;99.90
12434;DHT22;6281;49.038;8.372;2023-05-16T13:37:23;13.00;99.90
12434;DHT22;6281;49.038;8.372;2023-05-16T13:39:50;13.20;99.90
12434;DHT22;6281;49.038;8.372;2023-05-16T13:42:20;13.40;99.90
12434;DHT22;6281;49.038;8.372;2023-05-16T13:44:47;13.30;99.90
12434;DHT22;6281;49.038;8.372;2023-05-16T13:47:14;13.30;99.90
12434;DHT22;6281;49.038;8.372;2023-05-16T13:49:41;13.40;99.90
12434;DHT22;6281;49.038;8.372;2023-05-16T13:52:08;13.60;99.90
12434;DHT22;6281;49.038;8.372;2023-05-16T13:54:35;13.10;99.90
12434;DHT22;6281;49.038;8.372;2023-05-16T13:57:16;13.30;99.90
12434;DHT22;6281;49.038;8.372;2023-05-16T13:59:44;13.40;99.90
12434;DHT22;6281;49.038;8.372;2023-05-16T14:02:11;13.40;99.90
12434;DHT22;6281;49.038;8.372;2023-05-16T14:04:38;13.70;99.90
12434;DHT22;6281;49.038;8.372;2023-05-16T14:07:05;13.80;99.90
12434;DHT22;6281;49.038;8.372;2023-05-16T14:09:32;13.40;99.90
12434;DHT22;6281;49.038;8.372;2023-05-16T14:12:04;13.50;99.90
12434;DHT22;6281;49.038;8.372;2023-05-16T14:14:31;13.60;99.90
12434;DHT22;6281;49.038;8.372;2023-05-16T14:16:59;13.50;99.90
12434;DHT22;6281;49.038;8.372;2023-05-16T14:19:26;13.60;99.90
12434;DHT22;6281;49.038;8.372;2023-05-16T14:21:54;13.60;99.90
12434;DHT22;6281;49.038;8.372;2023-05-16T14:24:21;14.00;99.90
12434;DHT22;6281;49.038;8.372;2023-05-16T14:26:48;14.10;99.90
12434;DHT22;6281;49.038;8.372;2023-05-16T14:29:19;14.30;99.90
12434;DHT22;6281;49.038;8.372;2023-05-16T14:31:46;14.70;99.90
12434;DHT22;6281;49.038;8.372;2023-05-16T14:34:14;14.80;99.90
12434;DHT22;6281;49.038;8.372;2023-05-16T14:36:41;14.70;99.90
12434;DHT22;6281;49.038;8.372;2023-05-16T14:39:10;14.90;99.90
12434;DHT22;6281;49.038;8.372;2023-05-16T14:41:37;15.00;99.90
12434;DHT22;6281;49.038;8.372;2023-05-16T14:44:04;15.50;99.90
12434;DHT22;6281;49.038;8.372;2023-05-16T14:46:31;15.60;99.90
12434;DHT22;6281;49.038;8.372;2023-05-16T14:48:58;15.70;99.90
12434;DHT22;6281;49.038;8.372;2023-05-16T14:51:27;15.50;99.90
12434;DHT22;6281;49.038;8.372;2023-05-16T14:53:54;15.80;99.90
12434;DHT22;6281;49.038;8.372;2023-05-16T14:56:20;15.50;99.90
12434;DHT22;6281;49.038;8.372;2023-05-16T14:58:47;15.80;99.90
12434;DHT22;6281;49.038;8.372;2023-05-16T15:01:14;16.40;99.90
12434;DHT22;6281;49.038;8.372;2023-05-16T15:03:41;16.40;99.90
12434;DHT22;6281;49.038;8.372;2023-05-16T15:06:08;17.00;99.90
12434;DHT22;6281;49.038;8.372;2023-05-16T15:08:37;17.20;99.90
12434;DHT22;6281;49.038;8.372;2023-05-16T15:11:04;16.70;99.90
12434;DHT22;6281;49.038;8.372;2023-05-16T15:13:31;16.40;99.90
12434;DHT22;6281;49.038;8.372;2023-05-16T15:15:57;16.00;99.90
12434;DHT22;6281;49.038;8.372;2023-05-16T15:18:24;15.80;99.90
12434;DHT22;6281;49.038;8.372;2023-05-16T15:20:51;15.60;99.90
12434;DHT22;6281;49.038;8.372;2023-05-16T15:23:19;15.70;99.90
12434;DHT22;6281;49.038;8.372;2023-05-16T15:25:48;15.60;99.90
12434;DHT22;6281;49.038;8.372;2023-05-16T15:28:16;15.60;99.90
12434;DHT22;6281;49.038;8.372;2023-05-16T15:30:43;15.70;99.90
12434;DHT22;6281;49.038;8.372;2023-05-16T15:33:10;15.60;99.90
12434;DHT22;6281;49.038;8.372;2023-05-16T15:35:44;16.00;99.90
12434;DHT22;6281;49.038;8.372;2023-05-16T15:38:11;16.10;99.90
12434;DHT22;6281;49.038;8.372;2023-05-16T15:40:38;16.00;99.90
12434;DHT22;6281;49.038;8.372;2023-05-16T15:43:06;15.90;99.90
12434;DHT22;6281;49.038;8.372;2023-05-16T15:45:33;15.90;99.90
12434;DHT22;6281;49.038;8.372;2023-05-16T15:48:01;15.80;99.90
12434;DHT22;6281;49.038;8.372;2023-05-16T15:50:28;15.70;99.90
12434;DHT22;6281;49.038;8.372;2023-05-16T15:52:55;15.80;99.90
12434;DHT22;6281;49.038;8.372;2023-05-16T15:55:22;16.10;99.90